Time;durP1;ratioP1;P1;durP2;ratioP2;P2;SDS_P1;SDS_P2;PMS_P1;PMS_P2;Temp;Humidity;BMP_temperature;BMP_pressure;BME280_temperature;BME280_humidity;BME280_pressure;Samples;Min_cycle;Max_cycle;Signal;HPM_P1;HPM_P2
2022/06/28 00:02:04;;;;;;;13.77;9.50;;;;;;;12.33;86.18;101967.88;5070025;28;20041;-77
2022/06/28 00:04:31;;;;;;;10.60;8.95;;;;;;;12.32;85.96;101970.53;5071772;28;20513;-77
2022/06/28 00:06:58;;;;;;;12.15;9.50;;;;;;;12.30;86.12;101959.16;5069034;28;20597;-77
2022/06/28 00:09:27;;;;;;;17.60;10.10;;;;;;;12.29;86.09;101960.03;5071086;28;20041;-77
2022/06/28 00:11:54;;;;;;;13.15;9.98;;;;;;;12.29;86.33;101962.69;5071303;28;20045;-77
2022/06/28 00:17:07;;;;;;;13.07;9.73;;;;;;;12.30;85.99;101962.66;5069696;28;20717;-77
2022/06/28 00:19:37;;;;;;;14.13;11.00;;;;;;;12.31;86.44;101959.09;5072263;28;20056;-77
2022/06/28 00:22:04;;;;;;;14.88;11.02;;;;;;;12.31;86.84;101961.75;5070327;28;20045;-78
2022/06/28 00:24:31;;;;;;;13.75;9.85;;;;;;;12.32;86.72;101959.97;5070957;28;20112;-77
2022/06/28 00:26:59;;;;;;;13.23;9.95;;;;;;;12.31;86.91;101958.25;5071706;28;20120;-78
2022/06/28 00:29:26;;;;;;;16.83;10.30;;;;;;;12.27;87.12;101960.94;5051768;28;20055;-79
2022/06/28 00:31:53;;;;;;;13.00;9.30;;;;;;;12.25;86.99;101953.94;5049737;28;20463;-77
2022/06/28 00:34:20;;;;;;;10.50;9.38;;;;;;;12.24;86.84;101952.22;5056050;28;20041;-80
2022/06/28 00:36:48;;;;;;;11.10;9.95;;;;;;;12.21;86.79;101961.03;5069544;28;20529;-78
2022/06/28 00:39:15;;;;;;;10.63;9.52;;;;;;;12.20;86.70;101961.97;5069974;28;20074;-76
2022/06/28 00:41:43;;;;;;;14.50;10.50;;;;;;;12.20;86.82;101959.34;5071493;28;20045;-76
2022/06/28 00:44:13;;;;;;;14.23;10.57;;;;;;;12.20;86.87;101964.63;5070515;28;20044;-78
2022/06/28 00:46:44;;;;;;;10.52;9.43;;;;;;;12.19;86.56;101968.16;5069851;28;20047;-78
2022/06/28 00:49:13;;;;;;;13.07;9.75;;;;;;;12.19;86.77;101968.16;5070270;28;20563;-76
2022/06/28 00:51:41;;;;;;;10.95;9.73;;;;;;;12.19;86.92;101965.50;5047951;28;20044;-77
2022/06/28 00:54:08;;;;;;;12.38;9.90;;;;;;;12.20;86.87;101972.56;5060586;28;20037;-77
2022/06/28 00:56:35;;;;;;;14.98;9.70;;;;;;;12.21;86.83;101973.41;5069899;28;20432;-77
2022/06/28 00:59:02;;;;;;;14.68;10.18;;;;;;;12.21;87.01;101971.63;5069399;28;20045;-75
2022/06/28 01:01:30;;;;;;;12.82;9.98;;;;;;;12.21;86.99;101966.34;5070066;28;20140;-76
2022/06/28 01:03:59;;;;;;;12.07;9.27;;;;;;;12.22;87.34;101970.72;5053669;28;20041;-76
2022/06/28 01:06:26;;;;;;;11.55;9.52;;;;;;;12.24;87.42;101966.28;5065566;28;20053;-77
2022/06/28 01:08:54;;;;;;;11.68;9.85;;;;;;;12.27;87.45;101968.88;5052598;28;20116;-77
2022/06/28 01:11:28;;;;;;;10.68;9.57;;;;;;;12.26;87.27;101975.06;5057045;28;20052;-76
2022/06/28 01:14:03;;;;;;;13.85;9.95;;;;;;;12.26;87.51;101980.34;5049340;28;20498;-76
2022/06/28 01:16:48;;;;;;;10.93;9.65;;;;;;;12.27;87.42;101983.84;5047019;28;20112;-77
2022/06/28 01:19:18;;;;;;;12.50;10.20;;;;;;;12.24;87.48;101976.84;5040283;28;20049;-79
2022/06/28 01:21:50;;;;;;;14.15;10.18;;;;;;;12.20;87.12;101977.84;5052119;28;20038;-77
2022/06/28 01:24:23;;;;;;;12.20;10.02;;;;;;;12.17;87.08;101983.16;5055259;28;20040;-78
2022/06/28 01:27:02;;;;;;;12.55;10.32;;;;;;;12.13;87.14;101984.13;5065291;28;20076;-77
2022/06/28 01:29:31;;;;;;;10.60;9.50;;;;;;;12.11;86.98;101986.81;5056547;28;20052;-78
2022/06/28 01:32:18;;;;;;;10.70;9.25;;;;;;;12.09;87.20;101979.81;5054629;28;20119;-79
2022/06/28 01:34:48;;;;;;;13.63;9.50;;;;;;;12.08;87.13;101986.84;5051886;28;20127;-79
2022/06/28 01:37:19;;;;;;;14.05;9.77;;;;;;;12.10;87.24;101984.19;5051721;28;20045;-77
2022/06/28 01:39:47;;;;;;;12.52;10.30;;;;;;;12.14;87.41;101992.94;5050480;28;20034;-76
2022/06/28 01:42:15;;;;;;;12.88;10.50;;;;;;;12.15;87.39;101989.41;5068025;28;20147;-77
2022/06/28 01:44:45;;;;;;;12.30;10.35;;;;;;;12.19;87.38;101996.34;5052357;28;20055;-75
2022/06/28 01:47:25;;;;;;;14.10;10.45;;;;;;;12.19;87.54;101986.66;5065631;28;20049;-76
2022/06/28 01:50:05;;;;;;;12.10;9.98;;;;;;;12.21;87.54;101990.13;5074413;28;20077;-75
2022/06/28 01:52:41;;;;;;;12.48;10.57;;;;;;;12.22;87.41;101996.31;5053267;28;20112;-76
2022/06/28 01:55:31;;;;;;;10.93;9.20;;;;;;;12.19;87.22;102007.81;5056343;28;20158;-76
2022/06/28 01:58:01;;;;;;;12.20;10.15;;;;;;;12.17;87.23;102000.78;5055895;28;20045;-75
2022/06/28 02:00:35;;;;;;;13.02;9.77;;;;;;;12.15;87.09;102002.63;5069040;28;20045;-76
2022/06/28 02:03:03;;;;;;;10.35;9.25;;;;;;;12.10;87.29;102005.34;5055051;28;20048;-76
2022/06/28 02:05:37;;;;;;;11.85;9.00;;;;;;;12.05;87.22;102008.06;5071504;28;20056;-76
2022/06/28 02:08:05;;;;;;;10.63;9.15;;;;;;;12.00;86.97;102009.91;5052331;28;20049;-75
2022/06/28 02:11:01;;;;;;;10.55;8.95;;;;;;;11.92;86.73;102003.84;5049662;28;20111;-75
2022/06/28 02:13:42;;;;;;;11.50;8.95;;;;;;;11.87;86.92;102017.16;5054759;28;20041;-75
2022/06/28 02:16:10;;;;;;;12.57;9.25;;;;;;;11.82;86.96;102013.69;5054729;28;20045;-74
2022/06/28 02:18:37;;;;;;;14.10;9.05;;;;;;;11.79;86.93;102005.84;5054784;28;20432;-76
2022/06/28 02:21:06;;;;;;;9.43;8.43;;;;;;;11.74;86.94;102011.19;5049988;28;20049;-75
2022/06/28 02:23:34;;;;;;;10.48;8.82;;;;;;;11.70;86.92;102025.34;5052675;28;20044;-75
2022/06/28 02:26:02;;;;;;;9.98;8.80;;;;;;;11.65;86.86;102025.41;5047760;28;20040;-75
2022/06/28 02:28:30;;;;;;;11.77;9.20;;;;;;;11.64;86.95;102034.25;5068854;28;20491;-75
2022/06/28 02:30:58;;;;;;;12.48;10.15;;;;;;;11.61;86.91;102036.06;5059421;28;20041;-75
2022/06/28 02:33:25;;;;;;;10.73;9.07;;;;;;;11.59;87.09;102040.50;5055278;28;20041;-75
2022/06/28 02:41:27;;;;;;;12.15;10.15;;;;;;;11.53;87.41;102057.28;5072970;28;20045;-76
2022/06/28 02:43:54;;;;;;;12.32;9.85;;;;;;;11.51;87.51;102051.16;5071607;28;20052;-75
2022/06/28 02:46:21;;;;;;;11.73;9.80;;;;;;;11.48;87.50;102059.16;5072882;28;20043;-75
2022/06/28 02:48:49;;;;;;;11.07;9.73;;;;;;;11.46;87.82;102059.16;5071853;28;20083;-76
2022/06/28 02:51:17;;;;;;;11.73;10.02;;;;;;;11.44;88.03;102052.16;5054815;28;20103;-76
2022/06/28 02:53:44;;;;;;;12.45;10.82;;;;;;;11.42;88.02;102060.09;5072388;28;20128;-75
2022/06/28 02:56:11;;;;;;;14.43;10.25;;;;;;;11.38;88.18;102058.41;5072283;28;20037;-76
2022/06/28 02:58:39;;;;;;;11.23;10.10;;;;;;;11.37;88.04;102067.22;5071135;28;20091;-76
2022/06/28 03:01:06;;;;;;;13.15;9.88;;;;;;;11.35;87.88;102066.34;5053717;28;20124;-76
2022/06/28 03:03:34;;;;;;;11.98;10.25;;;;;;;11.33;87.97;102070.81;5068151;28;20048;-75
2022/06/28 03:06:02;;;;;;;10.77;9.52;;;;;;;11.31;87.70;102067.31;5050903;28;20053;-76
2022/06/28 03:08:29;;;;;;;13.18;10.02;;;;;;;11.28;87.92;102072.63;5050328;28;20048;-76
2022/06/28 03:10:57;;;;;;;12.07;9.77;;;;;;;11.27;87.67;102071.75;5071212;28;20045;-76
2022/06/28 03:13:25;;;;;;;12.60;9.95;;;;;;;11.27;87.70;102070.88;5071963;28;20045;-76
2022/06/28 03:15:52;;;;;;;11.23;9.60;;;;;;;11.27;87.99;102078.78;5054687;28;20041;-76
2022/06/28 03:18:19;;;;;;;16.02;10.40;;;;;;;11.26;87.90;102074.41;5071837;28;20043;-75
2022/06/28 03:20:53;;;;;;;13.25;9.40;;;;;;;11.28;87.89;102081.44;5072233;28;20037;-73
2022/06/28 03:23:20;;;;;;;11.95;9.95;;;;;;;11.29;87.99;102077.88;5072474;28;20539;-77
2022/06/28 03:25:47;;;;;;;13.32;10.60;;;;;;;11.31;87.89;102083.16;5054409;28;20565;-78
2022/06/28 03:28:15;;;;;;;12.93;9.38;;;;;;;11.32;87.82;102090.19;5071897;28;20056;-77
2022/06/28 03:30:42;;;;;;;12.25;9.07;;;;;;;11.34;87.84;102089.25;5071048;28;20885;-75
2022/06/28 03:33:09;;;;;;;13.00;9.90;;;;;;;11.37;87.69;102090.13;5071489;28;20449;-75
2022/06/28 03:35:37;;;;;;;11.63;8.93;;;;;;;11.38;87.63;102087.44;5052322;28;20116;-75
2022/06/28 03:38:06;;;;;;;12.32;9.60;;;;;;;11.42;87.71;102085.63;5047952;28;20674;-77
2022/06/28 03:41:03;;;;;;;10.90;8.35;;;;;;;11.46;87.76;102095.25;5052072;28;20033;-78
2022/06/28 03:43:30;;;;;;;15.50;9.10;;;;;;;11.49;87.57;102085.53;5054156;28;20095;-78
2022/06/28 03:45:59;;;;;;;12.18;9.35;;;;;;;11.65;87.34;102086.19;5053124;28;20776;-77
2022/06/28 03:48:49;;;;;;;10.38;9.00;;;;;;;11.80;86.73;102095.63;5042237;28;20037;-74
2022/06/28 03:51:17;;;;;;;10.90;8.25;;;;;;;11.89;86.59;102094.63;5069749;28;20041;-74
2022/06/28 03:54:16;;;;;;;10.00;8.48;;;;;;;11.91;86.82;102095.44;5045032;28;20045;-74
2022/06/28 03:56:49;;;;;;;13.55;8.18;;;;;;;12.01;86.71;102100.63;5052012;28;20546;-76
2022/06/28 03:59:18;;;;;;;10.88;8.57;;;;;;;12.12;86.59;102103.97;5051703;28;20041;-75
2022/06/28 04:01:46;;;;;;;12.23;8.13;;;;;;;12.13;86.64;102102.22;5054724;28;20725;-74
2022/06/28 04:04:13;;;;;;;9.35;7.75;;;;;;;12.15;86.65;102101.28;5050560;28;20124;-74
2022/06/28 04:06:44;;;;;;;9.95;8.60;;;;;;;12.19;86.79;102104.75;5049570;28;20521;-73
2022/06/28 04:09:12;;;;;;;11.55;8.45;;;;;;;12.31;86.61;102099.25;5070330;28;20099;-73
2022/06/28 04:11:43;;;;;;;9.98;7.32;;;;;;;12.44;86.16;102099.91;5052280;28;20041;-75
2022/06/28 04:14:13;;;;;;;10.50;7.85;;;;;;;12.47;86.24;102113.06;5051310;28;20111;-76
2022/06/28 04:16:41;;;;;;;10.35;7.45;;;;;;;12.53;86.11;102102.38;5072450;28;20067;-76
2022/06/28 04:19:12;;;;;;;9.63;7.20;;;;;;;12.54;86.19;102109.41;5048892;28;20069;-77
2022/06/28 04:21:46;;;;;;;10.98;6.47;;;;;;;12.68;85.80;102101.22;5051283;28;20037;-76
2022/06/28 04:24:17;;;;;;;8.75;6.38;;;;;;;12.97;84.96;102102.41;5054009;28;20065;-77
2022/06/28 04:27:20;;;;;;;8.77;6.43;;;;;;;12.98;85.11;102106.81;5052578;28;20493;-76
2022/06/28 04:29:47;;;;;;;10.25;5.47;;;;;;;12.96;85.18;102105.97;5052788;28;20504;-77
2022/06/28 04:32:34;;;;;;;10.27;5.70;;;;;;;12.99;84.96;102110.34;5060769;28;20424;-78
2022/06/28 04:35:02;;;;;;;11.15;5.38;;;;;;;12.99;84.83;102105.91;5048244;28;20048;-78
2022/06/28 04:37:29;;;;;;;9.38;5.45;;;;;;;13.04;84.72;102108.44;5039584;28;20033;-76
2022/06/28 04:40:00;;;;;;;8.88;5.75;;;;;;;13.09;84.21;102109.25;5043859;28;20041;-77
2022/06/28 04:42:36;;;;;;;;;;;;;;;13.12;84.31;102106.53;5052910;28;20037;-77
2022/06/28 04:45:06;;;;;;;8.63;4.70;;;;;;;13.16;84.24;102099.41;5052788;28;19925;-76
2022/06/28 04:47:47;;;;;;;9.93;4.70;;;;;;;13.22;83.75;102101.06;5046366;28;20525;-77
2022/06/28 04:50:17;;;;;;;11.50;5.47;;;;;;;13.28;83.61;102106.19;5058826;28;20790;-75
2022/06/28 04:52:44;;;;;;;11.18;5.43;;;;;;;13.32;83.73;102106.09;5054275;28;20041;-76
2022/06/28 04:55:11;;;;;;;11.23;5.50;;;;;;;13.36;83.36;102097.19;5046810;28;20049;-76
2022/06/28 04:57:48;;;;;;;13.27;5.47;;;;;;;13.42;83.39;102101.53;5048281;28;20033;-78
2022/06/28 05:00:18;;;;;;;15.70;5.90;;;;;;;13.48;83.38;102101.38;5046464;28;20045;-78
2022/06/28 05:02:55;;;;;;;12.10;5.80;;;;;;;13.56;82.85;102108.25;5065489;28;20033;-77
2022/06/28 05:05:41;;;;;;;13.75;5.22;;;;;;;13.63;82.99;102105.44;5056687;28;20057;-77
2022/06/28 05:08:12;;;;;;;10.65;4.78;;;;;;;13.73;82.43;102113.19;5056206;28;20065;-76
2022/06/28 05:11:15;;;;;;;12.63;5.03;;;;;;;13.87;82.51;102111.09;5059078;28;20049;-78
2022/06/28 05:14:01;;;;;;;8.40;4.80;;;;;;;14.14;81.83;102112.16;5068841;28;20072;-76
2022/06/28 05:16:29;;;;;;;8.32;5.45;;;;;;;14.75;81.08;102115.94;5069296;28;20111;-77
2022/06/28 05:18:57;;;;;;;9.75;4.82;;;;;;;15.15;80.10;102111.31;5039060;28;20048;-76
2022/06/28 05:21:31;;;;;;;7.70;4.85;;;;;;;17.01;74.93;102105.19;5057322;28;20048;-77
2022/06/28 05:23:58;;;;;;;15.52;4.22;;;;;;;18.27;71.33;102104.66;5056638;28;20049;-78
2022/06/28 05:26:31;;;;;;;8.07;3.67;;;;;;;19.22;65.86;102104.03;5071233;28;20555;-78
2022/06/28 05:29:14;;;;;;;11.90;3.85;;;;;;;21.22;60.23;102101.09;5068979;28;20041;-76
2022/06/28 05:31:41;;;;;;;10.25;3.38;;;;;;;23.33;51.86;102094.03;5062532;28;20799;-76
2022/06/28 05:34:08;;;;;;;7.95;2.85;;;;;;;24.92;48.89;102082.41;5058349;28;20119;-77
2022/06/28 05:36:37;;;;;;;14.70;3.80;;;;;;;26.31;45.85;102084.75;5060173;28;20095;-78
2022/06/28 05:39:05;;;;;;;10.27;2.88;;;;;;;27.55;42.83;102078.44;5048870;28;20050;-78
2022/06/28 05:41:33;;;;;;;7.03;2.30;;;;;;;28.52;39.10;102085.59;5061131;28;20040;-77
2022/06/28 05:44:01;;;;;;;7.50;2.47;;;;;;;29.21;37.41;102085.84;5046801;28;20481;-77
2022/06/28 05:46:32;;;;;;;6.80;2.53;;;;;;;29.75;36.11;102082.78;5048311;28;20064;-77
2022/06/28 05:49:01;;;;;;;6.00;2.38;;;;;;;30.30;34.47;102081.31;5058568;28;20029;-77
2022/06/28 05:51:29;;;;;;;10.25;2.92;;;;;;;30.88;34.57;102084.84;5053323;28;20068;-77
2022/06/28 05:53:57;;;;;;;7.18;2.70;;;;;;;31.45;33.48;102076.50;5048229;28;20079;-77
2022/06/28 05:56:50;;;;;;;6.97;2.50;;;;;;;32.06;31.93;102074.84;5041652;28;20069;-77
2022/06/28 05:59:18;;;;;;;7.28;2.10;;;;;;;32.55;30.50;102061.69;5043102;28;20040;-78
2022/06/28 06:01:45;;;;;;;5.22;2.25;;;;;;;32.80;29.07;102065.41;5040062;28;20045;-78
2022/06/28 06:04:14;;;;;;;8.02;2.58;;;;;;;32.83;29.28;102057.75;5036775;28;20042;-79
2022/06/28 06:06:43;;;;;;;10.43;2.50;;;;;;;32.95;29.27;102071.97;5057277;28;20060;-78
2022/06/28 06:09:11;;;;;;;5.38;2.35;;;;;;;32.97;27.81;102071.78;5052894;28;20080;-79
2022/06/28 06:11:38;;;;;;;8.02;2.35;;;;;;;32.92;28.11;102076.88;5051991;28;20096;-79
2022/06/28 06:14:06;;;;;;;5.60;2.28;;;;;;;32.83;27.77;102085.06;5067471;28;20117;-80
2022/06/28 06:16:33;;;;;;;10.43;2.30;;;;;;;32.66;28.67;102089.53;5069754;28;20037;-78
2022/06/28 06:19:00;;;;;;;13.07;2.45;;;;;;;32.62;28.64;102098.22;5052103;28;20546;-79
2022/06/28 06:21:28;;;;;;;5.53;1.77;;;;;;;32.20;28.47;102105.28;5052133;28;20037;-78
2022/06/28 06:23:56;;;;;;;8.10;2.25;;;;;;;30.56;30.87;102095.16;5040481;28;20115;-79
2022/06/28 06:26:42;;;;;;;9.77;2.70;;;;;;;27.45;35.73;102096.44;5070436;28;20067;-79
2022/06/28 06:29:12;;;;;;;7.10;2.80;;;;;;;25.10;39.14;102093.69;5051174;28;20041;-79
2022/06/28 06:31:39;;;;;;;11.02;2.65;;;;;;;23.34;42.76;102102.00;5052294;28;20048;-78
2022/06/28 06:34:42;;;;;;;7.72;2.55;;;;;;;21.76;46.19;102106.16;5064587;28;20041;-77
2022/06/28 06:37:11;;;;;;;4.95;2.47;;;;;;;20.81;48.64;102109.63;5056303;28;20041;-76
2022/06/28 06:39:38;;;;;;;9.00;2.78;;;;;;;20.02;51.47;102107.34;5073517;28;20531;-79
2022/06/28 06:42:06;;;;;;;6.68;2.70;;;;;;;19.40;52.84;102112.13;5074288;28;20045;-78
2022/06/28 06:44:34;;;;;;;6.13;2.47;;;;;;;18.98;54.28;102122.06;5050634;28;20851;-77
2022/06/28 06:47:04;;;;;;;9.45;2.80;;;;;;;18.58;55.44;102119.34;5037308;28;20120;-77
2022/06/28 06:49:32;;;;;;;9.73;3.30;;;;;;;18.30;56.28;102119.69;5036160;28;20120;-78
2022/06/28 06:51:59;;;;;;;5.78;2.85;;;;;;;18.12;57.09;102122.19;5053795;28;20041;-79
2022/06/28 06:54:28;;;;;;;10.73;3.38;;;;;;;17.98;57.66;102125.44;5037805;28;20042;-78
2022/06/28 06:56:56;;;;;;;7.03;3.15;;;;;;;17.88;58.66;102118.69;5072970;28;20068;-79
2022/06/28 06:59:23;;;;;;;6.85;3.10;;;;;;;17.79;59.30;102116.41;5070696;28;20526;-78
2022/06/28 07:01:50;;;;;;;8.55;3.65;;;;;;;17.75;59.76;102128.16;5055468;28;20107;-78
2022/06/28 07:04:25;;;;;;;14.30;3.88;;;;;;;17.75;60.43;102125.50;5055897;28;20049;-78
2022/06/28 07:07:00;;;;;;;13.48;3.20;;;;;;;17.76;60.71;102122.75;5065802;28;20054;-78
2022/06/28 07:09:28;;;;;;;8.82;3.47;;;;;;;17.81;61.19;102128.75;5055497;28;20079;-77
2022/06/28 07:12:01;;;;;;;10.52;3.72;;;;;;;17.89;61.27;102130.25;5056717;28;20112;-77
2022/06/28 07:14:28;;;;;;;12.45;3.63;;;;;;;17.90;61.32;102124.84;5053599;28;20041;-77
2022/06/28 07:17:00;;;;;;;7.32;3.47;;;;;;;17.94;61.13;102123.81;5053240;28;20049;-77
2022/06/28 07:19:28;;;;;;;9.25;3.30;;;;;;;17.97;61.79;102131.69;5051739;28;20083;-77
2022/06/28 07:21:55;;;;;;;6.63;3.30;;;;;;;17.97;61.92;102130.84;5055456;28;20164;-78
2022/06/28 07:24:23;;;;;;;11.38;3.60;;;;;;;18.00;61.87;102130.72;5055074;28;20058;-77
2022/06/28 07:26:51;;;;;;;10.40;3.72;;;;;;;18.02;62.21;102127.97;5055404;28;20045;-76
2022/06/28 07:29:21;;;;;;;19.65;3.95;;;;;;;18.07;62.06;102134.88;5058526;28;20045;-78
2022/06/28 07:31:48;;;;;;;23.27;3.88;;;;;;;18.12;61.77;102137.34;5051834;28;20033;-77
2022/06/28 07:34:17;;;;;;;9.25;3.00;;;;;;;18.18;61.15;102137.06;5052256;28;20071;-77
2022/06/28 07:36:45;;;;;;;35.20;4.68;;;;;;;18.25;61.03;102132.34;5071944;28;20033;-77
2022/06/28 07:39:12;;;;;;;12.38;3.28;;;;;;;18.36;60.43;102135.44;5054374;28;20504;-78
2022/06/28 07:41:59;;;;;;;22.25;4.00;;;;;;;18.44;60.33;102135.97;5053466;28;20184;-79
2022/06/28 07:44:44;;;;;;;15.07;2.85;;;;;;;18.55;60.02;102137.31;5069472;28;20037;-79
2022/06/28 07:47:12;;;;;;;20.10;3.95;;;;;;;18.62;58.87;102136.97;5070756;28;20180;-78
2022/06/28 07:52:36;;;;;;;6.18;2.30;;;;;;;18.70;55.14;102135.75;5054441;28;20064;-79
2022/06/28 07:55:10;;;;;;;6.55;2.33;;;;;;;18.70;56.37;102133.09;5054585;28;20064;-76
2022/06/28 07:57:48;;;;;;;8.98;3.03;;;;;;;18.73;57.18;102127.63;5050551;28;20052;-76
2022/06/28 08:00:19;;;;;;;10.80;3.00;;;;;;;18.82;58.33;102129.88;5054076;28;20045;-77
2022/06/28 08:02:56;;;;;;;9.90;2.45;;;;;;;18.95;57.42;102129.38;5050170;28;20045;-76
2022/06/28 08:05:26;;;;;;;8.30;2.60;;;;;;;18.98;56.69;102127.41;5053713;28;20061;-76
2022/06/28 08:07:54;;;;;;;9.32;2.60;;;;;;;19.05;57.10;102128.88;5070521;28;20069;-77
2022/06/28 08:10:25;;;;;;;12.40;3.40;;;;;;;19.12;57.37;102116.09;5072067;28;20087;-76
2022/06/28 08:12:54;;;;;;;10.45;2.83;;;;;;;19.21;57.41;102115.66;5045881;28;20041;-77
2022/06/28 08:15:22;;;;;;;7.20;3.13;;;;;;;19.29;57.16;102109.06;5054774;28;20045;-77
2022/06/28 08:17:54;;;;;;;11.80;2.95;;;;;;;19.31;56.08;102108.09;5052410;28;20052;-77
2022/06/28 08:20:22;;;;;;;7.60;2.70;;;;;;;19.36;55.29;102106.06;5053707;28;20044;-76
2022/06/28 08:22:52;;;;;;;8.10;2.50;;;;;;;19.36;55.24;102114.06;5042959;28;20121;-76
2022/06/28 08:25:20;;;;;;;12.20;2.88;;;;;;;19.39;54.58;102105.91;5052965;28;20420;-77
2022/06/28 08:27:47;;;;;;;6.25;2.60;;;;;;;19.40;54.75;102104.97;5070050;28;20123;-76
2022/06/28 08:30:15;;;;;;;447.77;22.83;;;;;;;19.49;54.88;102109.00;5054000;28;20041;-74
2022/06/28 08:32:42;;;;;;;11.98;2.65;;;;;;;19.61;55.06;102090.63;5057381;28;20045;-72
2022/06/28 08:35:11;;;;;;;8.05;2.22;;;;;;;19.74;54.29;102094.44;5052796;28;20044;-78
2022/06/28 08:37:38;;;;;;;9.77;2.65;;;;;;;19.86;54.06;102091.19;5072408;28;20037;-78
2022/06/28 08:40:06;;;;;;;5.82;2.30;;;;;;;19.98;53.47;102089.72;5072391;28;20516;-77
2022/06/28 08:42:43;;;;;;;6.80;2.45;;;;;;;20.05;52.10;102082.25;5070880;28;20036;-76
2022/06/28 08:45:12;;;;;;;11.13;2.22;;;;;;;20.08;52.94;102082.09;5072364;28;20107;-77
2022/06/28 08:47:41;;;;;;;8.25;2.63;;;;;;;20.17;51.97;102078.06;5072108;28;20053;-77
2022/06/28 08:50:19;;;;;;;6.25;1.80;;;;;;;20.26;52.24;102077.56;5070037;28;20043;-77
2022/06/28 08:52:48;;;;;;;8.55;1.90;;;;;;;20.30;50.73;102071.13;5072719;28;20079;-77
2022/06/28 08:55:15;;;;;;;6.30;1.67;;;;;;;20.35;50.56;102075.41;5055620;28;20076;-78
2022/06/28 08:57:44;;;;;;;6.65;1.80;;;;;;;20.43;51.76;102071.34;5052081;28;20531;-78
2022/06/28 09:00:12;;;;;;;5.53;1.90;;;;;;;20.59;50.84;102075.91;5051800;28;20479;-78
2022/06/28 09:02:40;;;;;;;10.05;1.90;;;;;;;20.69;50.95;102074.47;5069571;28;20559;-78
2022/06/28 09:05:08;;;;;;;7.13;1.52;;;;;;;20.76;49.60;102073.22;5071636;28;20084;-77
2022/06/28 09:07:35;;;;;;;4.38;1.75;;;;;;;20.84;48.87;102080.84;5058727;28;20125;-77
2022/06/28 09:10:03;;;;;;;5.53;2.03;;;;;;;20.87;47.71;102071.75;5051593;28;20069;-77
2022/06/28 09:12:33;;;;;;;4.70;1.10;;;;;;;20.85;48.09;102069.19;5051659;28;20042;-77
2022/06/28 09:15:04;;;;;;;4.05;1.20;;;;;;;20.88;46.80;102068.13;5052318;28;20049;-78
2022/06/28 09:17:33;;;;;;;9.68;1.58;;;;;;;20.85;47.47;102065.63;5054688;28;20081;-77
2022/06/28 09:20:05;;;;;;;4.80;1.17;;;;;;;20.86;48.16;102064.66;5051763;28;20077;-78
2022/06/28 09:22:42;;;;;;;3.45;1.38;;;;;;;20.93;45.82;102061.56;5052516;28;20037;-77
2022/06/28 09:25:28;;;;;;;9.48;2.10;;;;;;;20.92;48.48;102064.31;5065760;28;20052;-78
2022/06/28 09:28:01;;;;;;;12.27;2.00;;;;;;;21.07;47.99;102067.97;5070729;28;20393;-77
2022/06/28 09:30:31;;;;;;;6.40;1.58;;;;;;;21.16;48.87;102064.81;5068214;28;20045;-77
2022/06/28 09:33:03;;;;;;;7.03;1.77;;;;;;;21.24;47.51;102056.31;5069853;28;20052;-77
2022/06/28 09:35:30;;;;;;;4.68;1.60;;;;;;;21.30;48.06;102063.13;5070442;28;20037;-77
2022/06/28 09:37:57;;;;;;;11.02;2.05;;;;;;;21.38;47.87;102045.66;5069630;28;20037;-76
2022/06/28 09:40:31;;;;;;;5.15;1.77;;;;;;;21.50;48.15;102048.59;5069520;28;20044;-78
2022/06/28 09:43:12;;;;;;;5.68;1.65;;;;;;;21.67;47.82;102050.34;5070770;28;20049;-77
2022/06/28 09:45:43;;;;;;;11.52;1.77;;;;;;;21.82;45.74;102044.06;5070663;28;20048;-78
2022/06/28 09:48:19;;;;;;;4.45;1.20;;;;;;;21.88;44.33;102054.44;5071448;28;20041;-78
2022/06/28 09:50:47;;;;;;;5.85;1.20;;;;;;;21.85;45.61;102051.06;5071407;28;20114;-78
2022/06/28 09:53:16;;;;;;;4.13;1.10;;;;;;;21.92;47.20;102048.88;5071628;28;20041;-77
2022/06/28 09:55:44;;;;;;;7.10;1.00;;;;;;;22.05;47.86;102043.63;5071608;28;20049;-77
2022/06/28 09:58:11;;;;;;;5.43;1.00;;;;;;;22.21;47.15;102032.84;5071422;28;20065;-79
2022/06/28 10:00:39;;;;;;;2.85;0.82;;;;;;;22.36;46.72;102034.59;5070666;28;20543;-78
2022/06/28 10:03:10;;;;;;;6.32;1.20;;;;;;;22.54;46.77;102035.28;5070664;28;20045;-77
2022/06/28 10:05:38;;;;;;;4.90;0.90;;;;;;;22.64;45.99;102024.84;5070742;28;20073;-77
2022/06/28 10:08:07;;;;;;;8.68;1.25;;;;;;;22.71;45.88;102026.16;5073871;28;20095;-78
2022/06/28 10:10:37;;;;;;;9.07;1.00;;;;;;;22.77;45.59;102019.56;5074459;28;20696;-77
2022/06/28 10:16:30;;;;;;;5.22;1.00;;;;;;;22.99;44.69;102027.13;5068757;28;20041;-78
2022/06/28 10:19:01;;;;;;;8.77;1.63;;;;;;;23.09;43.82;102030.06;5066608;28;20049;-78
2022/06/28 10:22:13;;;;;;;14.20;1.55;;;;;;;23.12;43.75;102029.88;5074486;28;20115;-78
2022/06/28 10:24:57;;;;;;;5.60;0.95;;;;;;;23.20;43.70;102016.81;5074201;28;20041;-77
2022/06/28 10:27:27;;;;;;;11.82;1.15;;;;;;;23.25;44.35;102017.34;5074266;28;20104;-78
2022/06/28 10:30:00;;;;;;;5.97;0.98;;;;;;;23.38;44.09;102017.44;5073439;28;20428;-77
2022/06/28 10:32:49;;;;;;;9.63;1.35;;;;;;;23.54;44.57;102021.78;5073396;28;20037;-77
2022/06/28 10:35:29;;;;;;;9.32;1.30;;;;;;;23.64;43.53;102016.66;5073438;28;20052;-77
2022/06/28 10:38:07;;;;;;;5.60;1.30;;;;;;;23.64;43.31;102012.13;5073223;28;20045;-78
2022/06/28 10:40:52;;;;;;;2.78;0.95;;;;;;;23.64;42.43;102003.19;5070778;28;20044;-77
2022/06/28 10:43:25;;;;;;;17.05;1.58;;;;;;;23.68;43.72;102005.56;5053846;28;20049;-77
2022/06/28 10:46:07;;;;;;;3.13;1.08;;;;;;;23.86;41.32;102010.66;5054412;28;20042;-78
2022/06/28 10:49:08;;;;;;;7.68;1.38;;;;;;;23.85;41.50;101999.03;5072242;28;20052;-77
2022/06/28 10:52:01;;;;;;;4.97;1.13;;;;;;;23.87;40.96;101996.25;5057596;28;20601;-79
2022/06/28 10:54:29;;;;;;;4.47;1.20;;;;;;;23.81;41.98;101985.91;5072183;28;20049;-78
2022/06/28 10:56:59;;;;;;;3.55;0.80;;;;;;;23.87;40.71;101982.78;5073952;28;20065;-78
2022/06/28 10:59:38;;;;;;;7.20;0.90;;;;;;;23.94;40.13;101986.75;5073086;28;20110;-78
2022/06/28 11:02:05;;;;;;;3.83;1.00;;;;;;;23.94;40.46;101983.22;5073877;28;20037;-77
2022/06/28 11:04:32;;;;;;;3.47;0.90;;;;;;;24.01;40.19;101976.47;5073305;28;20095;-78
2022/06/28 11:07:25;;;;;;;4.70;0.82;;;;;;;23.87;40.83;101978.25;5072227;28;20085;-77
2022/06/28 11:10:04;;;;;;;6.38;1.08;;;;;;;23.55;40.56;101973.22;5072178;28;20045;-77
2022/06/28 11:12:36;;;;;;;6.38;1.10;;;;;;;23.51;41.53;101970.84;5072943;28;20091;-78
2022/06/28 11:15:08;;;;;;;4.75;1.08;;;;;;;23.54;43.16;101971.53;5072096;28;20041;-77
2022/06/28 11:17:44;;;;;;;6.78;1.00;;;;;;;23.41;43.51;101962.56;5071914;28;20103;-77
2022/06/28 11:20:21;;;;;;;6.78;1.27;;;;;;;23.71;42.88;101966.81;5073041;28;20045;-78
2022/06/28 11:22:52;;;;;;;6.25;1.00;;;;;;;24.03;42.33;101951.13;5073245;28;20068;-78
2022/06/28 11:25:24;;;;;;;6.45;1.05;;;;;;;24.28;41.03;101952.09;5067925;28;20037;-78
2022/06/28 11:27:56;;;;;;;8.05;1.27;;;;;;;24.47;41.15;101948.94;5072573;28;20091;-76
2022/06/28 11:30:27;;;;;;;5.50;1.10;;;;;;;24.63;41.69;101953.22;5073475;28;20052;-77
2022/06/28 11:32:57;;;;;;;8.65;1.10;;;;;;;24.86;42.03;101956.13;5073226;28;20051;-78
2022/06/28 11:35:28;;;;;;;5.00;1.00;;;;;;;25.16;41.83;101952.09;5072986;28;20045;-77
2022/06/28 11:38:06;;;;;;;10.45;1.20;;;;;;;25.20;40.44;101945.47;5072295;28;20080;-77
2022/06/28 11:40:49;;;;;;;13.55;1.25;;;;;;;25.28;38.69;101943.09;5071552;28;20471;-78
2022/06/28 11:43:27;;;;;;;5.22;1.00;;;;;;;25.38;39.13;101941.41;5072899;28;20040;-77
2022/06/28 11:45:55;;;;;;;7.22;1.05;;;;;;;25.49;38.88;101940.63;5071278;28;20124;-78
2022/06/28 11:48:29;;;;;;;6.85;1.63;;;;;;;25.61;38.85;101937.94;5071067;28;20045;-78
2022/06/28 11:51:00;;;;;;;10.80;1.30;;;;;;;25.35;39.44;101941.63;5072592;28;20037;-78
2022/06/28 11:53:30;;;;;;;7.57;1.30;;;;;;;24.92;38.74;101936.78;5073156;28;20080;-78
2022/06/28 11:56:00;;;;;;;2.70;1.00;;;;;;;24.91;39.19;101930.53;5071765;28;20033;-77